createdAt,value
2023-04-19T00:00:51.956Z,11.50
2023-04-19T00:05:49.426Z,11.68
2023-04-19T00:10:47.615Z,11.64
2023-04-19T00:15:44.146Z,11.53
2023-04-19T00:20:40.758Z,11.99
2023-04-19T00:25:39.966Z,11.98
2023-04-19T00:30:38.237Z,12.38
2023-04-19T00:35:34.985Z,12.19
2023-04-19T00:40:31.644Z,11.92
2023-04-19T00:45:29.122Z,11.93
2023-04-19T00:50:27.988Z,11.82
2023-04-19T00:55:26.647Z,12.22
2023-04-19T01:00:23.248Z,12.37
2023-04-19T01:05:21.862Z,12.29
2023-04-19T01:10:18.455Z,12.52
2023-04-19T01:15:15.034Z,12.73
2023-04-19T01:20:11.791Z,12.89
2023-04-19T01:25:09.773Z,12.95
2023-04-19T01:30:07.102Z,12.93
2023-04-19T01:35:03.929Z,12.91
2023-04-19T01:40:00.740Z,12.89
2023-04-19T01:44:58.706Z,13.00
2023-04-19T01:49:56.422Z,13.18
2023-04-19T01:54:52.987Z,13.23
2023-04-19T01:59:49.818Z,13.18
2023-04-19T02:04:47.087Z,13.31
2023-04-19T02:09:43.808Z,13.40
2023-04-19T02:14:41.938Z,13.29
2023-04-19T02:19:39.129Z,13.17
2023-04-19T02:24:36.395Z,13.00
2023-04-19T02:29:33.387Z,13.00
2023-04-19T02:34:30.042Z,13.15
2023-04-19T02:39:26.861Z,13.02
2023-04-19T02:44:24.224Z,13.13
2023-04-19T02:49:21.283Z,13.10
2023-04-19T02:54:17.973Z,12.52
2023-04-19T02:59:15.771Z,12.39
2023-04-19T03:04:14.317Z,12.25
2023-04-19T03:09:11.780Z,12.31
2023-04-19T03:14:08.487Z,12.49
2023-04-19T03:19:08.121Z,12.46
2023-04-19T03:24:11.024Z,12.41
2023-04-19T03:29:11.197Z,12.11
2023-04-19T03:34:40.671Z,11.88
2023-04-19T03:39:37.990Z,12.02
2023-04-19T03:44:38.989Z,11.97
2023-04-19T03:49:37.430Z,12.02
2023-04-19T03:54:36.405Z,11.74
2023-04-19T03:59:36.931Z,11.64
2023-04-19T04:04:34.097Z,11.66
2023-04-19T04:09:30.950Z,11.83
2023-04-19T04:14:28.840Z,11.78
2023-04-19T04:19:26.576Z,11.90
2023-04-19T04:24:24.428Z,11.73
2023-04-19T04:29:40.734Z,11.67
2023-04-19T04:34:39.275Z,11.81
2023-04-19T04:39:40.707Z,11.91
2023-04-19T04:44:40.886Z,11.95
2023-04-19T04:49:39.643Z,11.72
2023-04-19T04:54:37.222Z,12.04
2023-04-19T04:59:37.716Z,12.28
2023-04-19T05:04:34.389Z,12.45
2023-04-19T05:09:31.948Z,12.68
2023-04-19T05:14:28.652Z,12.68
2023-04-19T05:19:25.469Z,12.67
2023-04-19T05:24:32.131Z,12.51
2023-04-19T05:29:32.244Z,12.58
2023-04-19T05:34:33.702Z,12.42
2023-04-19T05:39:31.382Z,12.49
2023-04-19T05:44:29.428Z,12.40
2023-04-19T05:49:27.381Z,12.47
2023-04-19T05:54:44.750Z,12.40
2023-04-19T05:59:42.239Z,12.23
2023-04-19T06:04:44.915Z,12.44
2023-04-19T06:09:49.008Z,12.47
2023-04-19T06:14:52.106Z,12.39
2023-04-19T06:19:54.342Z,11.73
2023-04-19T06:24:55.278Z,11.96
2023-04-19T06:29:55.278Z,12.26
2023-04-19T06:35:40.673Z,12.43
2023-04-19T06:40:42.126Z,12.75
2023-04-19T06:45:41.054Z,12.80
2023-04-19T06:50:44.829Z,12.92
2023-04-19T06:56:06.403Z,12.82
2023-04-19T07:01:06.002Z,12.97
2023-04-19T07:06:10.157Z,13.24
2023-04-19T07:11:11.787Z,13.32
2023-04-19T07:16:10.996Z,13.44
2023-04-19T07:21:24.888Z,13.51
2023-04-19T07:26:29.454Z,13.55
2023-04-19T07:31:28.674Z,13.52
2023-04-19T07:36:31.637Z,13.23
2023-04-19T07:41:32.234Z,13.47
2023-04-19T07:46:31.411Z,13.61
2023-04-19T07:51:28.570Z,13.65
2023-04-19T07:56:33.239Z,13.81
2023-04-19T08:01:33.544Z,13.97
2023-04-19T08:06:40.022Z,14.05
2023-04-19T08:11:37.975Z,14.13
2023-04-19T08:21:41.301Z,14.18
2023-04-19T08:26:41.875Z,14.17
2023-04-19T08:31:42.694Z,14.28
2023-04-19T08:37:02.879Z,14.33
2023-04-19T08:42:13.415Z,14.45
2023-04-19T08:47:39.357Z,14.53
2023-04-19T08:52:58.780Z,14.64
2023-04-19T08:58:05.761Z,14.74
2023-04-19T09:03:13.539Z,14.80
2023-04-19T09:08:21.537Z,14.91
2023-04-19T09:13:25.016Z,14.99
2023-04-19T09:18:24.396Z,15.06
2023-04-19T09:23:22.033Z,15.16
2023-04-19T09:28:23.550Z,15.24
2023-04-19T09:33:39.679Z,15.40
2023-04-19T09:38:54.969Z,15.47
2023-04-19T09:44:13.012Z,15.46
2023-04-19T09:49:25.262Z,15.51
2023-04-19T09:54:35.149Z,15.53
2023-04-19T09:59:48.894Z,15.52
2023-04-19T10:05:03.259Z,15.33
2023-04-19T10:10:19.400Z,15.25
2023-04-19T10:15:20.952Z,15.25
2023-04-19T10:20:24.048Z,15.29
2023-04-19T10:25:29.672Z,15.39
2023-04-19T10:30:27.399Z,15.17
2023-04-19T10:35:26.125Z,15.22
2023-04-19T10:40:38.036Z,15.52
2023-04-19T10:45:35.864Z,15.40
2023-04-19T10:50:47.623Z,15.31
2023-04-19T10:55:51.907Z,15.22
2023-04-19T11:01:09.480Z,15.40
2023-04-19T11:06:16.565Z,15.04
2023-04-19T11:11:17.627Z,15.21
2023-04-19T11:16:14.808Z,14.96
2023-04-19T11:21:12.760Z,15.04
2023-04-19T11:26:10.538Z,15.21
2023-04-19T11:31:16.005Z,15.50
2023-04-19T11:36:16.246Z,15.78
2023-04-19T11:41:26.528Z,15.84
2023-04-19T11:59:29.884Z,15.63
2023-04-19T12:05:36.112Z,15.70
2023-04-19T12:23:08.064Z,16.21
2023-04-19T13:13:23.407Z,16.99
2023-04-19T13:25:23.047Z,17.21
2023-04-19T13:31:06.170Z,17.05
2023-04-19T13:54:45.115Z,17.32
2023-04-19T15:41:43.761Z,17.42
2023-04-19T17:37:42.240Z,16.45
2023-04-19T17:55:16.242Z,16.19
2023-04-19T18:07:27.716Z,16.46
2023-04-19T18:12:22.470Z,16.38
2023-04-19T18:29:39.243Z,16.68
2023-04-19T18:54:33.342Z,16.01
2023-04-19T19:13:50.983Z,15.83
2023-04-19T19:19:42.399Z,15.31
2023-04-19T19:26:12.939Z,15.32
2023-04-19T19:57:21.739Z,15.34
2023-04-19T20:02:51.314Z,14.91
2023-04-19T20:08:01.545Z,15.07
2023-04-19T20:20:08.036Z,15.33
2023-04-19T20:38:43.066Z,14.43
2023-04-19T20:57:27.759Z,14.25
2023-04-19T21:14:36.366Z,14.47
2023-04-19T21:19:40.662Z,14.47
2023-04-19T21:25:16.442Z,14.94
2023-04-19T21:30:38.124Z,15.23
2023-04-19T21:35:44.084Z,15.43
2023-04-19T21:41:15.803Z,15.56
2023-04-19T21:46:51.785Z,15.73
2023-04-19T21:58:24.976Z,15.18
2023-04-19T22:04:05.333Z,15.10
2023-04-19T22:09:34.486Z,14.98
2023-04-19T22:15:15.080Z,14.81
2023-04-19T22:27:09.535Z,14.27
2023-04-19T22:33:20.406Z,14.18
2023-04-19T22:39:06.325Z,14.25
2023-04-19T22:45:08.596Z,14.64
2023-04-19T23:02:26.157Z,14.89
2023-04-19T23:13:30.648Z,14.78
2023-04-19T23:43:00.631Z,14.60
2023-04-19T23:54:35.329Z,14.69
